createdAt,value
2019-05-10T00:00:12.158Z,10.37
2019-05-10T00:02:58.405Z,14.47
2019-05-10T00:05:45.398Z,13.90
2019-05-10T00:08:30.183Z,17.93
2019-05-10T00:11:05.366Z,12.13
2019-05-10T00:13:35.083Z,12.63
2019-05-10T00:16:01.705Z,10.30
2019-05-10T00:18:28.081Z,11.40
2019-05-10T00:20:54.706Z,11.17
2019-05-10T00:23:21.137Z,11.00
2019-05-10T00:25:47.543Z,12.03
2019-05-10T00:28:13.929Z,12.17
2019-05-10T00:30:40.357Z,11.97
2019-05-10T00:33:06.911Z,11.07
2019-05-10T00:35:33.542Z,9.00
2019-05-10T00:38:00.018Z,11.80
2019-05-10T00:40:26.492Z,13.50
2019-05-10T00:42:52.799Z,12.13
2019-05-10T00:45:19.479Z,12.20
2019-05-10T00:47:46.012Z,10.90
2019-05-10T00:50:12.714Z,11.23
2019-05-10T00:52:39.027Z,11.13
2019-05-10T00:55:17.862Z,10.57
2019-05-10T00:57:34.177Z,9.10
2019-05-10T01:00:00.609Z,10.57
2019-05-10T01:02:27.199Z,9.43
2019-05-10T01:04:53.587Z,11.27
2019-05-10T01:07:20.144Z,13.60
2019-05-10T01:09:46.545Z,12.73
2019-05-10T01:12:13.067Z,13.37
2019-05-10T01:14:39.462Z,13.67
2019-05-10T01:17:05.760Z,12.90
2019-05-10T01:19:32.263Z,11.63
2019-05-10T01:21:58.734Z,9.67
2019-05-10T01:24:25.228Z,12.87
2019-05-10T01:26:51.692Z,9.30
2019-05-10T01:29:18.110Z,11.17
2019-05-10T01:31:44.488Z,10.93
2019-05-10T01:34:10.890Z,12.33
2019-05-10T01:36:37.276Z,12.80
2019-05-10T01:39:04.889Z,9.53
2019-05-10T01:41:31.201Z,11.57
2019-05-10T01:43:57.737Z,9.03
2019-05-10T01:46:24.374Z,8.87
2019-05-10T01:48:50.826Z,17.37
2019-05-10T01:51:17.313Z,8.33
2019-05-10T01:53:43.727Z,14.73
2019-05-10T01:56:10.149Z,10.33
2019-05-10T01:58:36.977Z,10.13
2019-05-10T02:01:03.488Z,9.43
2019-05-10T02:03:30.091Z,10.20
2019-05-10T02:05:56.697Z,9.43
2019-05-10T02:08:23.147Z,9.50
2019-05-10T02:10:49.577Z,10.07
2019-05-10T02:13:15.972Z,11.87
2019-05-10T02:15:42.552Z,11.53
2019-05-10T02:18:09.296Z,10.00
2019-05-10T02:20:35.717Z,13.63
2019-05-10T02:23:02.125Z,9.23
2019-05-10T02:25:28.637Z,8.70
2019-05-10T02:27:55.024Z,11.17
2019-05-10T02:30:21.654Z,9.40
2019-05-10T02:32:48.240Z,8.63
2019-05-10T02:35:14.855Z,7.70
2019-05-10T02:37:41.344Z,10.97
2019-05-10T02:40:08.376Z,10.97
2019-05-10T02:42:34.843Z,8.70
2019-05-10T02:45:02.777Z,8.80
2019-05-10T02:47:29.117Z,10.00
2019-05-10T02:49:58.967Z,12.60
2019-05-10T02:52:24.038Z,9.37
2019-05-10T02:54:50.952Z,13.33
2019-05-10T02:57:19.351Z,9.87
2019-05-10T02:59:47.576Z,17.30
2019-05-10T03:02:16.272Z,12.73
2019-05-10T03:04:45.296Z,10.27
2019-05-10T03:07:13.535Z,8.67
2019-05-10T03:09:43.215Z,10.93
2019-05-10T03:12:20.970Z,9.37
2019-05-10T03:14:52.162Z,6.33
2019-05-10T03:17:19.098Z,10.50
2019-05-10T03:19:49.383Z,7.23
2019-05-10T03:22:17.310Z,9.53
2019-05-10T03:24:43.924Z,11.33
2019-05-10T03:27:10.438Z,11.07
2019-05-10T03:29:37.010Z,11.97
2019-05-10T03:32:03.425Z,12.50
2019-05-10T03:34:30.041Z,11.07
2019-05-10T03:36:56.641Z,10.63
2019-05-10T03:39:23.080Z,11.03
2019-05-10T03:41:49.575Z,11.63
2019-05-10T03:44:15.984Z,12.00
2019-05-10T03:46:42.349Z,9.63
2019-05-10T03:49:08.854Z,11.30
2019-05-10T03:51:35.144Z,14.50
2019-05-10T03:54:01.599Z,10.93
2019-05-10T03:56:29.964Z,11.07
2019-05-10T03:58:56.411Z,9.77
2019-05-10T04:01:22.907Z,12.37
2019-05-10T04:03:49.306Z,9.40
2019-05-10T04:06:15.921Z,11.60
2019-05-10T04:08:42.477Z,10.20
2019-05-10T04:11:08.815Z,11.20
2019-05-10T04:13:35.245Z,10.13
2019-05-10T04:16:01.617Z,11.70
2019-05-10T04:18:28.083Z,11.87
2019-05-10T04:20:54.439Z,9.17
2019-05-10T04:23:20.934Z,11.77
2019-05-10T04:25:47.336Z,12.87
2019-05-10T04:28:13.765Z,14.00
2019-05-10T04:30:40.032Z,7.87
2019-05-10T04:33:06.658Z,14.23
2019-05-10T04:35:33.076Z,14.63
2019-05-10T04:37:59.467Z,10.87
2019-05-10T04:40:25.867Z,11.43
2019-05-10T04:42:52.273Z,15.20
2019-05-10T04:45:18.807Z,12.93
2019-05-10T04:47:45.074Z,10.87
2019-05-10T04:50:11.685Z,11.33
2019-05-10T04:52:38.070Z,10.40
2019-05-10T04:55:05.808Z,11.97
2019-05-10T04:57:49.309Z,9.93
2019-05-10T05:00:00.661Z,8.90
2019-05-10T05:02:27.289Z,11.33
2019-05-10T05:04:53.974Z,13.33
2019-05-10T05:07:20.429Z,9.17
2019-05-10T05:09:46.879Z,12.50
2019-05-10T05:12:13.357Z,15.30
2019-05-10T05:14:39.865Z,11.27
2019-05-10T05:17:06.815Z,11.07
2019-05-10T05:19:33.117Z,13.70
2019-05-10T05:21:59.618Z,14.03
2019-05-10T05:24:27.032Z,16.53
2019-05-10T05:26:53.607Z,17.80
2019-05-10T05:29:20.154Z,21.03
2019-05-10T05:31:46.550Z,20.80
2019-05-10T05:34:12.927Z,19.60
2019-05-10T05:36:39.632Z,21.50
2019-05-10T05:39:07.387Z,21.27
2019-05-10T05:41:47.836Z,22.23
2019-05-10T05:44:02.351Z,21.37
2019-05-10T05:46:28.882Z,24.87
2019-05-10T05:48:55.402Z,21.23
2019-05-10T05:51:21.924Z,21.17
2019-05-10T05:53:48.290Z,26.77
2019-05-10T05:56:14.981Z,23.63
2019-05-10T05:58:44.813Z,25.63
2019-05-10T06:01:09.876Z,22.13
2019-05-10T06:03:36.165Z,24.67
2019-05-10T06:06:15.309Z,23.93
2019-05-10T06:08:31.340Z,27.57
2019-05-10T06:11:00.045Z,24.23
2019-05-10T06:13:30.482Z,28.50
2019-05-10T06:15:54.529Z,23.13
2019-05-10T06:18:20.918Z,26.17
2019-05-10T06:20:47.340Z,28.07
2019-05-10T06:23:13.867Z,25.43
2019-05-10T06:25:42.606Z,23.13
2019-05-10T06:28:25.107Z,24.07
2019-05-10T06:30:37.062Z,26.20
2019-05-10T06:33:12.639Z,24.80
2019-05-10T06:35:32.160Z,26.80
2019-05-10T06:37:58.731Z,24.57
2019-05-10T06:40:34.309Z,25.13
2019-05-10T06:42:53.849Z,27.97
2019-05-10T06:45:20.398Z,24.47
2019-05-10T06:47:49.659Z,26.90
2019-05-10T06:50:15.815Z,29.63
2019-05-10T06:52:42.126Z,28.73
2019-05-10T06:55:08.799Z,28.07
2019-05-10T06:57:35.421Z,27.97
2019-05-10T07:00:07.904Z,31.47
2019-05-10T07:02:34.806Z,28.80
2019-05-10T07:05:01.440Z,28.00
2019-05-10T07:07:43.403Z,27.50
2019-05-10T07:10:12.284Z,27.03
2019-05-10T07:12:24.411Z,28.93
2019-05-10T07:14:50.680Z,29.00
2019-05-10T07:17:17.007Z,30.47
2019-05-10T07:19:53.058Z,28.43
2019-05-10T07:22:11.734Z,29.47
2019-05-10T07:24:38.362Z,26.27
2019-05-10T07:27:05.818Z,28.03
2019-05-10T07:29:42.131Z,24.57
2019-05-10T07:32:00.806Z,24.93
2019-05-10T07:34:27.224Z,25.57
2019-05-10T07:36:53.766Z,24.30
2019-05-10T07:39:20.405Z,21.93
2019-05-10T07:41:46.829Z,23.30
2019-05-10T07:44:13.269Z,23.53
2019-05-10T07:46:45.693Z,20.20
2019-05-10T07:49:08.141Z,22.50
2019-05-10T07:51:34.452Z,20.17
2019-05-10T07:54:04.661Z,19.73
2019-05-10T07:56:29.168Z,19.93
2019-05-10T07:58:55.679Z,21.30
2019-05-10T08:01:31.855Z,21.47
2019-05-10T08:03:52.434Z,17.07
2019-05-10T08:06:19.347Z,16.43
2019-05-10T08:08:45.734Z,11.27
2019-05-10T08:11:12.355Z,11.23
2019-05-10T08:13:39.371Z,12.00
2019-05-10T08:16:11.806Z,12.50
2019-05-10T08:18:34.543Z,12.50
2019-05-10T08:21:03.354Z,13.90
2019-05-10T08:23:29.331Z,11.87
2019-05-10T08:25:55.770Z,13.60
2019-05-10T08:28:22.821Z,15.47
2019-05-10T08:30:57.316Z,12.27
2019-05-10T08:33:18.051Z,12.90
2019-05-10T08:35:46.448Z,12.20
2019-05-10T08:38:13.083Z,11.43
2019-05-10T08:40:39.805Z,10.80
2019-05-10T08:43:08.983Z,13.50
2019-05-10T08:45:38.857Z,9.87
2019-05-10T08:48:06.831Z,10.50
2019-05-10T08:50:48.910Z,12.13
2019-05-10T08:53:02.309Z,10.93
2019-05-10T08:55:29.074Z,12.57
2019-05-10T08:57:55.529Z,9.57
2019-05-10T09:00:40.252Z,12.83
2019-05-10T09:02:52.072Z,12.27
2019-05-10T09:05:20.999Z,12.80
2019-05-10T09:07:47.234Z,16.37
2019-05-10T09:10:14.633Z,11.87
2019-05-10T09:12:50.586Z,15.37
2019-05-10T09:15:13.159Z,8.63
2019-05-10T09:17:38.510Z,12.27
2019-05-10T09:20:11.941Z,8.37
2019-05-10T09:22:38.540Z,12.00
2019-05-10T09:25:05.400Z,10.07
2019-05-10T09:27:33.437Z,12.30
2019-05-10T09:30:02.602Z,8.87
2019-05-10T09:32:29.389Z,8.20
2019-05-10T09:34:59.876Z,7.97
2019-05-10T09:37:25.020Z,9.47
2019-05-10T09:39:55.337Z,8.40
2019-05-10T09:42:26.470Z,9.80
2019-05-10T09:44:48.074Z,10.67
2019-05-10T09:47:14.495Z,8.40
2019-05-10T09:49:45.171Z,7.83
2019-05-10T09:52:12.786Z,6.53
2019-05-10T09:54:38.174Z,5.13
2019-05-10T09:57:04.671Z,6.00
2019-05-10T09:59:31.331Z,4.97
2019-05-10T10:01:57.844Z,5.57
2019-05-10T10:04:24.455Z,7.87
2019-05-10T10:06:52.653Z,9.43
2019-05-10T10:09:19.158Z,7.90
2019-05-10T10:11:57.241Z,5.40
2019-05-10T10:14:13.975Z,4.93
2019-05-10T10:16:40.447Z,7.43
2019-05-10T10:19:07.301Z,6.00
2019-05-10T10:21:35.472Z,9.50
2019-05-10T10:24:12.687Z,16.50
2019-05-10T10:26:31.075Z,7.50
2019-05-10T10:29:00.108Z,5.17
2019-05-10T10:31:30.404Z,5.83
2019-05-10T10:33:57.979Z,7.67
2019-05-10T10:36:22.740Z,8.23
2019-05-10T10:38:49.849Z,7.30
2019-05-10T10:41:25.706Z,4.43
2019-05-10T10:43:44.821Z,4.63
2019-05-10T10:46:12.511Z,6.60
2019-05-10T10:48:43.581Z,5.23
2019-05-10T10:51:08.190Z,5.10
2019-05-10T10:53:34.706Z,4.33
2019-05-10T10:56:03.795Z,4.37
2019-05-10T10:58:29.849Z,8.03
2019-05-10T11:00:56.381Z,5.17
2019-05-10T11:03:24.104Z,5.00
2019-05-10T11:05:51.396Z,4.83
2019-05-10T11:08:17.905Z,5.33
2019-05-10T11:10:44.469Z,7.10
2019-05-10T11:13:18.062Z,5.33
2019-05-10T11:15:41.807Z,6.40
2019-05-10T11:18:07.664Z,7.47
2019-05-10T11:20:34.223Z,5.33
2019-05-10T11:23:00.836Z,5.43
2019-05-10T11:25:27.437Z,8.10
2019-05-10T11:27:58.372Z,10.10
2019-05-10T11:30:22.329Z,6.60
2019-05-10T11:32:48.969Z,5.23
2019-05-10T11:35:22.731Z,5.03
2019-05-10T11:37:45.660Z,6.13
2019-05-10T11:40:18.126Z,5.37
2019-05-10T11:42:47.242Z,6.70
2019-05-10T11:45:11.857Z,6.37
2019-05-10T11:47:40.744Z,6.47
2019-05-10T11:50:07.795Z,6.00
2019-05-10T11:52:36.342Z,4.17
2019-05-10T11:55:03.660Z,8.80
2019-05-10T11:57:32.867Z,7.03
2019-05-10T11:59:58.771Z,5.13
2019-05-10T12:04:53.653Z,5.07
2019-05-10T12:07:24.551Z,5.40
2019-05-10T12:09:53.324Z,6.37
2019-05-10T12:12:16.974Z,6.47
2019-05-10T12:14:46.538Z,9.37
2019-05-10T12:17:14.253Z,5.30
2019-05-10T12:19:47.787Z,5.80
2019-05-10T12:22:08.694Z,7.20
2019-05-10T12:24:52.513Z,5.20
2019-05-10T12:26:03.777Z,5.73
2019-05-10T12:27:17.307Z,9.03
2019-05-10T12:29:32.176Z,4.77
2019-05-10T12:31:59.155Z,7.53
2019-05-10T12:34:25.976Z,6.13
2019-05-10T12:36:52.616Z,8.37
2019-05-10T12:39:21.279Z,7.10
2019-05-10T12:41:49.748Z,6.00
2019-05-10T12:44:15.950Z,8.60
2019-05-10T12:46:42.455Z,8.43
2019-05-10T12:49:12.011Z,10.63
2019-05-10T12:51:38.171Z,8.50
2019-05-10T12:54:04.855Z,9.50
2019-05-10T12:56:34.847Z,7.60
2019-05-10T12:59:00.106Z,10.30
2019-05-10T13:01:31.740Z,10.70
2019-05-10T13:03:55.193Z,8.43
2019-05-10T13:06:21.670Z,9.07
2019-05-10T13:08:48.225Z,12.53
2019-05-10T13:11:18.863Z,10.80
2019-05-10T13:13:43.531Z,13.57
2019-05-10T13:16:11.941Z,11.23
2019-05-10T13:18:50.540Z,11.27
2019-05-10T13:21:13.189Z,12.47
2019-05-10T13:23:36.003Z,10.57
2019-05-10T13:26:02.753Z,12.40
2019-05-10T13:28:29.311Z,11.17
2019-05-10T13:30:59.709Z,13.47
2019-05-10T13:33:28.931Z,10.60
2019-05-10T13:35:56.459Z,12.90
2019-05-10T13:38:21.429Z,12.23
2019-05-10T13:40:48.073Z,13.13
2019-05-10T13:43:17.389Z,11.67
2019-05-10T13:45:43.391Z,9.97
2019-05-10T13:48:10.015Z,12.07
2019-05-10T13:50:36.683Z,11.30
2019-05-10T13:53:03.496Z,10.47
2019-05-10T13:55:29.866Z,9.60
2019-05-10T13:57:56.456Z,8.50
2019-05-10T14:00:33.128Z,9.67
2019-05-10T14:02:52.480Z,10.87
2019-05-10T14:05:19.972Z,9.70
2019-05-10T14:07:52.143Z,10.63
2019-05-10T14:10:18.153Z,13.27
2019-05-10T14:12:43.942Z,9.43
2019-05-10T14:15:13.594Z,11.17
2019-05-10T14:17:38.996Z,8.83
2019-05-10T14:20:07.954Z,10.30
2019-05-10T14:22:35.781Z,9.47
2019-05-10T14:25:07.237Z,13.80
2019-05-10T14:27:36.032Z,10.37
2019-05-10T14:30:07.373Z,9.20
2019-05-10T14:32:33.217Z,10.47
2019-05-10T14:34:59.686Z,10.90
2019-05-10T14:37:26.135Z,8.77
2019-05-10T14:39:52.867Z,10.40
2019-05-10T14:42:24.193Z,9.63
2019-05-10T14:44:48.195Z,9.33
2019-05-10T14:47:14.850Z,9.07
2019-05-10T14:49:47.004Z,8.93
2019-05-10T14:52:10.226Z,8.53
2019-05-10T14:54:43.893Z,8.33
2019-05-10T14:57:05.157Z,9.83
2019-05-10T14:59:31.705Z,9.03
2019-05-10T15:01:58.361Z,7.90
2019-05-10T15:06:53.371Z,8.10
2019-05-10T15:09:23.854Z,7.80
2019-05-10T15:11:48.316Z,8.03
2019-05-10T15:14:14.835Z,8.70
2019-05-10T15:16:41.363Z,7.77
2019-05-10T15:19:08.141Z,7.67
2019-05-10T15:21:34.850Z,8.03
2019-05-10T15:24:03.074Z,8.07
2019-05-10T15:26:29.966Z,8.13
2019-05-10T15:28:56.613Z,5.60
2019-05-10T15:31:23.760Z,5.27
2019-05-10T15:33:51.765Z,4.27
2019-05-10T15:36:18.412Z,4.03
2019-05-10T15:38:50.779Z,4.43
2019-05-10T15:41:17.115Z,6.00
2019-05-10T15:43:42.096Z,5.17
2019-05-10T15:46:08.822Z,5.80
2019-05-10T15:48:36.496Z,6.20
2019-05-10T15:51:04.057Z,5.63
2019-05-10T15:53:31.291Z,5.20
2019-05-10T15:55:58.964Z,5.17
2019-05-10T15:58:30.719Z,4.80
2019-05-10T16:00:55.217Z,4.60
2019-05-10T16:03:22.015Z,5.87
2019-05-10T16:05:59.870Z,4.70
2019-05-10T16:08:17.695Z,22.43
2019-05-10T16:10:50.932Z,4.03
2019-05-10T16:13:23.391Z,3.80
2019-05-10T16:15:46.391Z,5.43
2019-05-10T16:18:13.057Z,3.30
2019-05-10T16:21:27.628Z,5.40
2019-05-10T16:23:54.287Z,4.10
2019-05-10T16:26:23.038Z,3.67
2019-05-10T16:28:53.129Z,3.03
2019-05-10T16:31:35.273Z,6.40
2019-05-10T16:34:01.938Z,3.37
2019-05-10T16:36:30.115Z,4.40
2019-05-10T16:39:01.119Z,2.83
2019-05-10T16:41:27.017Z,3.17
2019-05-10T16:43:57.832Z,2.20
2019-05-10T16:46:22.567Z,2.37
2019-05-10T16:48:49.287Z,3.30
2019-05-10T16:51:15.925Z,3.10
2019-05-10T16:53:43.670Z,3.20
2019-05-10T16:56:13.415Z,2.50
2019-05-10T16:58:39.853Z,2.93
2019-05-10T17:01:06.532Z,3.27
2019-05-10T17:03:33.195Z,2.93
2019-05-10T17:06:04.218Z,3.83
2019-05-10T17:08:30.813Z,3.80
2019-05-10T17:10:56.903Z,4.73
2019-05-10T17:13:23.578Z,3.57
2019-05-10T17:15:50.255Z,4.37
2019-05-10T17:18:19.699Z,4.13
2019-05-10T17:20:50.426Z,5.43
2019-05-10T17:23:14.128Z,5.20
2019-05-10T17:25:42.065Z,5.00
2019-05-10T17:28:09.085Z,4.47
2019-05-10T17:30:35.996Z,5.20
2019-05-10T17:33:03.923Z,5.00
2019-05-10T17:35:36.250Z,6.37
2019-05-10T17:38:00.478Z,3.90
2019-05-10T17:40:27.313Z,4.67
2019-05-10T17:42:54.142Z,4.20
2019-05-10T17:45:21.074Z,3.90
2019-05-10T17:47:47.732Z,6.40
2019-05-10T17:50:16.287Z,4.40
2019-05-10T17:52:43.611Z,4.73
2019-05-10T17:55:16.862Z,8.13
2019-05-10T17:57:40.284Z,4.37
2019-05-10T18:00:09.243Z,4.83
2019-05-10T18:02:36.491Z,4.17
2019-05-10T18:05:06.443Z,5.13
2019-05-10T18:07:32.984Z,6.43
2019-05-10T18:09:59.647Z,7.53
2019-05-10T18:12:27.329Z,4.83
2019-05-10T18:14:55.754Z,5.07
2019-05-10T18:17:25.838Z,6.10
2019-05-10T18:19:51.265Z,5.13
2019-05-10T18:22:18.041Z,6.40
2019-05-10T18:24:44.876Z,7.67
2019-05-10T18:27:11.521Z,7.70
2019-05-10T18:29:38.173Z,8.20
2019-05-10T18:32:05.241Z,6.73
2019-05-10T18:34:35.516Z,5.50
2019-05-10T18:37:02.619Z,6.27
2019-05-10T18:39:29.262Z,4.87
2019-05-10T18:41:55.978Z,4.27
2019-05-10T18:44:22.767Z,6.27
2019-05-10T18:46:49.613Z,6.50
2019-05-10T18:49:16.336Z,7.07
2019-05-10T18:51:43.048Z,4.77
2019-05-10T18:54:09.916Z,3.63
2019-05-10T18:56:36.562Z,3.43
2019-05-10T18:59:07.447Z,5.70
2019-05-10T19:01:33.009Z,4.67
2019-05-10T19:04:00.424Z,5.73
2019-05-10T19:06:27.101Z,3.60
2019-05-10T19:08:53.666Z,4.30
2019-05-10T19:11:20.381Z,4.47
2019-05-10T19:13:51.199Z,4.37
2019-05-10T19:16:15.917Z,5.77
2019-05-10T19:18:42.743Z,5.27
2019-05-10T19:21:09.518Z,5.60
2019-05-10T19:23:36.356Z,3.93
2019-05-10T19:26:03.195Z,5.93
2019-05-10T19:28:30.001Z,5.10
2019-05-10T19:30:58.870Z,4.67
2019-05-10T19:33:29.714Z,4.10
2019-05-10T19:35:53.906Z,5.93
2019-05-10T19:38:20.654Z,5.50
2019-05-10T19:40:47.336Z,5.23
2019-05-10T19:43:15.162Z,4.97
2019-05-10T19:45:42.425Z,7.10
2019-05-10T19:48:09.109Z,5.10
2019-05-10T19:50:35.912Z,5.47
2019-05-10T19:53:04.028Z,7.00
2019-05-10T19:55:31.490Z,8.50
2019-05-10T19:57:58.184Z,8.03
2019-05-10T20:00:25.002Z,8.57
2019-05-10T20:02:51.826Z,7.30
2019-05-10T20:05:18.834Z,6.63
2019-05-10T20:07:46.622Z,7.00
2019-05-10T20:10:14.172Z,6.40
2019-05-10T20:12:41.274Z,6.80
2019-05-10T20:15:08.364Z,7.80
2019-05-10T20:17:37.815Z,5.23
2019-05-10T20:20:06.396Z,6.00
2019-05-10T20:22:36.219Z,9.53
2019-05-10T20:25:02.575Z,5.90
2019-05-10T20:27:29.610Z,6.07
2019-05-10T20:29:56.277Z,7.07
2019-05-10T20:32:22.962Z,7.13
2019-05-10T20:34:49.947Z,6.80
2019-05-10T20:37:17.315Z,6.57
2019-05-10T20:39:44.090Z,9.17
2019-05-10T20:42:10.887Z,7.77
2019-05-10T20:44:37.685Z,7.73
2019-05-10T20:47:04.509Z,10.63
2019-05-10T20:49:31.059Z,8.63
2019-05-10T20:51:57.622Z,8.30
2019-05-10T20:54:24.394Z,7.40
2019-05-10T20:56:51.582Z,6.70
2019-05-10T20:59:18.148Z,6.67
2019-05-10T21:01:44.943Z,7.17
2019-05-10T21:04:11.645Z,7.17
2019-05-10T21:06:38.305Z,7.83
2019-05-10T21:09:05.626Z,10.50
2019-05-10T21:11:32.311Z,9.13
2019-05-10T21:13:59.214Z,9.27
2019-05-10T21:16:25.803Z,9.70
2019-05-10T21:18:52.466Z,8.60
2019-05-10T21:21:19.135Z,8.40
2019-05-10T21:23:46.002Z,9.13
2019-05-10T21:26:12.652Z,10.23
2019-05-10T21:28:39.269Z,10.03
2019-05-10T21:31:05.903Z,11.50
2019-05-10T21:33:33.327Z,9.83
2019-05-10T21:36:00.327Z,11.70
2019-05-10T21:38:32.928Z,9.90
2019-05-10T21:40:55.511Z,10.13
2019-05-10T21:43:22.183Z,9.83
2019-05-10T21:45:48.963Z,10.23
2019-05-10T21:48:15.438Z,10.17
2019-05-10T21:50:42.002Z,9.10
2019-05-10T21:53:08.467Z,8.77
2019-05-10T21:55:35.039Z,9.83
2019-05-10T21:58:01.564Z,10.33
2019-05-10T22:00:32.916Z,10.27
2019-05-10T22:02:59.670Z,10.00
2019-05-10T22:05:26.207Z,10.60
2019-05-10T22:07:52.803Z,10.17
2019-05-10T22:10:19.392Z,11.73
2019-05-10T22:12:46.017Z,10.93
2019-05-10T22:15:12.654Z,10.57
2019-05-10T22:17:39.164Z,8.13
2019-05-10T22:20:06.090Z,11.37
2019-05-10T22:22:32.735Z,10.63
2019-05-10T22:24:59.304Z,12.17
2019-05-10T22:27:25.672Z,10.90
2019-05-10T22:29:52.113Z,10.73
2019-05-10T22:32:18.543Z,10.10
2019-05-10T22:34:44.869Z,11.70
2019-05-10T22:37:11.330Z,9.23
2019-05-10T22:39:37.738Z,9.43
2019-05-10T22:42:04.482Z,10.40
2019-05-10T22:44:30.969Z,10.87
2019-05-10T22:46:57.388Z,11.73
2019-05-10T22:49:24.017Z,11.80
2019-05-10T22:51:50.492Z,14.07
2019-05-10T22:54:17.122Z,14.13
2019-05-10T22:56:43.531Z,11.77
2019-05-10T22:59:09.822Z,13.17
2019-05-10T23:01:36.386Z,12.00
2019-05-10T23:04:02.963Z,11.73
2019-05-10T23:06:29.410Z,12.37
2019-05-10T23:08:56.054Z,12.27
2019-05-10T23:11:22.482Z,15.10
2019-05-10T23:13:48.799Z,14.70
2019-05-10T23:16:15.323Z,13.07
2019-05-10T23:18:41.841Z,12.70
2019-05-10T23:21:08.605Z,11.80
2019-05-10T23:23:35.001Z,13.70
2019-05-10T23:26:01.497Z,12.97
2019-05-10T23:28:27.964Z,12.20
2019-05-10T23:30:54.362Z,11.80
2019-05-10T23:33:20.806Z,11.43
2019-05-10T23:35:47.214Z,13.33
2019-05-10T23:38:13.776Z,13.00
2019-05-10T23:40:40.288Z,12.37
2019-05-10T23:43:07.043Z,13.30
2019-05-10T23:45:33.740Z,11.73
2019-05-10T23:48:00.216Z,12.90
2019-05-10T23:50:26.629Z,11.70
2019-05-10T23:52:53.058Z,14.00
2019-05-10T23:55:19.482Z,19.07
2019-05-10T23:57:46.075Z,13.17
